sensor_id;sensor_type;location;lat;lon;timestamp;temperature;humidity
17208;DHT22;8720;48.488;9.202;2023-09-19T00:01:03;18.70;65.00
17208;DHT22;8720;48.488;9.202;2023-09-19T00:03:33;18.70;65.00
17208;DHT22;8720;48.488;9.202;2023-09-19T00:06:04;18.70;65.00
17208;DHT22;8720;48.488;9.202;2023-09-19T00:08:33;18.70;65.20
17208;DHT22;8720;48.488;9.202;2023-09-19T00:11:01;18.70;65.00
17208;DHT22;8720;48.488;9.202;2023-09-19T00:13:29;18.70;64.90
17208;DHT22;8720;48.488;9.202;2023-09-19T00:15:56;18.70;64.90
17208;DHT22;8720;48.488;9.202;2023-09-19T00:18:25;18.70;65.00
17208;DHT22;8720;48.488;9.202;2023-09-19T00:20:57;18.60;64.90
17208;DHT22;8720;48.488;9.202;2023-09-19T00:23:26;18.70;65.20
17208;DHT22;8720;48.488;9.202;2023-09-19T00:25:53;18.60;65.10
17208;DHT22;8720;48.488;9.202;2023-09-19T00:28:25;18.70;64.80
17208;DHT22;8720;48.488;9.202;2023-09-19T00:30:53;18.70;64.80
17208;DHT22;8720;48.488;9.202;2023-09-19T00:33:21;18.70;65.00
17208;DHT22;8720;48.488;9.202;2023-09-19T00:35:50;18.70;65.00
17208;DHT22;8720;48.488;9.202;2023-09-19T00:38:18;18.70;65.10
17208;DHT22;8720;48.488;9.202;2023-09-19T00:40:50;18.70;65.20
17208;DHT22;8720;48.488;9.202;2023-09-19T00:43:17;18.70;65.20
17208;DHT22;8720;48.488;9.202;2023-09-19T00:45:46;18.70;65.30
17208;DHT22;8720;48.488;9.202;2023-09-19T00:48:16;18.70;65.60
17208;DHT22;8720;48.488;9.202;2023-09-19T00:50:46;18.70;65.50
17208;DHT22;8720;48.488;9.202;2023-09-19T00:53:18;18.70;65.60
17208;DHT22;8720;48.488;9.202;2023-09-19T00:55:51;18.70;66.00
17208;DHT22;8720;48.488;9.202;2023-09-19T00:58:19;18.60;66.30
17208;DHT22;8720;48.488;9.202;2023-09-19T01:00:47;18.70;67.10
17208;DHT22;8720;48.488;9.202;2023-09-19T01:03:15;18.70;66.80
17208;DHT22;8720;48.488;9.202;2023-09-19T01:05:44;18.60;66.80
17208;DHT22;8720;48.488;9.202;2023-09-19T01:08:11;18.70;66.80
17208;DHT22;8720;48.488;9.202;2023-09-19T01:10:43;18.60;66.60
17208;DHT22;8720;48.488;9.202;2023-09-19T01:13:23;18.60;66.90
17208;DHT22;8720;48.488;9.202;2023-09-19T01:16:02;18.70;66.90
17208;DHT22;8720;48.488;9.202;2023-09-19T01:18:40;18.70;67.20
17208;DHT22;8720;48.488;9.202;2023-09-19T01:21:21;18.70;67.10
17208;DHT22;8720;48.488;9.202;2023-09-19T01:24:13;18.60;67.30
17208;DHT22;8720;48.488;9.202;2023-09-19T01:27:23;18.60;67.50
17208;DHT22;8720;48.488;9.202;2023-09-19T01:30:10;18.60;67.70
17208;DHT22;8720;48.488;9.202;2023-09-19T01:32:41;18.60;67.10
17208;DHT22;8720;48.488;9.202;2023-09-19T01:35:12;18.60;67.20
17208;DHT22;8720;48.488;9.202;2023-09-19T01:37:39;18.60;67.60
17208;DHT22;8720;48.488;9.202;2023-09-19T01:40:11;18.60;67.70
17208;DHT22;8720;48.488;9.202;2023-09-19T01:42:45;18.60;68.00
17208;DHT22;8720;48.488;9.202;2023-09-19T01:45:28;18.60;68.00
17208;DHT22;8720;48.488;9.202;2023-09-19T01:48:10;18.60;68.20
17208;DHT22;8720;48.488;9.202;2023-09-19T01:50:53;18.60;68.20
17208;DHT22;8720;48.488;9.202;2023-09-19T01:53:26;18.60;68.00
17208;DHT22;8720;48.488;9.202;2023-09-19T01:55:57;18.60;68.00
17208;DHT22;8720;48.488;9.202;2023-09-19T01:58:32;18.60;68.20
17208;DHT22;8720;48.488;9.202;2023-09-19T02:01:05;18.60;68.10
17208;DHT22;8720;48.488;9.202;2023-09-19T02:03:38;18.60;67.90
17208;DHT22;8720;48.488;9.202;2023-09-19T02:06:13;18.60;67.80
17208;DHT22;8720;48.488;9.202;2023-09-19T02:08:43;18.60;67.60
17208;DHT22;8720;48.488;9.202;2023-09-19T02:11:16;18.60;67.70
17208;DHT22;8720;48.488;9.202;2023-09-19T02:13:43;18.60;68.50
17208;DHT22;8720;48.488;9.202;2023-09-19T02:16:13;18.60;67.80
17208;DHT22;8720;48.488;9.202;2023-09-19T02:18:46;18.60;68.00
17208;DHT22;8720;48.488;9.202;2023-09-19T02:21:19;18.60;67.70
17208;DHT22;8720;48.488;9.202;2023-09-19T02:23:47;18.60;67.60
17208;DHT22;8720;48.488;9.202;2023-09-19T02:26:17;18.60;67.50
17208;DHT22;8720;48.488;9.202;2023-09-19T02:28:47;18.50;67.40
17208;DHT22;8720;48.488;9.202;2023-09-19T02:31:15;18.50;67.50
17208;DHT22;8720;48.488;9.202;2023-09-19T02:33:43;18.50;67.50
17208;DHT22;8720;48.488;9.202;2023-09-19T02:36:16;18.50;67.60
17208;DHT22;8720;48.488;9.202;2023-09-19T02:38:44;18.50;67.80
17208;DHT22;8720;48.488;9.202;2023-09-19T02:41:12;18.50;67.60
17208;DHT22;8720;48.488;9.202;2023-09-19T02:43:39;18.50;67.60
17208;DHT22;8720;48.488;9.202;2023-09-19T02:46:08;18.50;67.60
17208;DHT22;8720;48.488;9.202;2023-09-19T02:48:38;18.40;67.60
17208;DHT22;8720;48.488;9.202;2023-09-19T02:51:06;18.40;67.80
17208;DHT22;8720;48.488;9.202;2023-09-19T02:53:34;18.30;67.60
17208;DHT22;8720;48.488;9.202;2023-09-19T02:56:01;18.30;67.60
17208;DHT22;8720;48.488;9.202;2023-09-19T02:58:30;18.30;67.80
17208;DHT22;8720;48.488;9.202;2023-09-19T03:01:08;18.30;67.90
17208;DHT22;8720;48.488;9.202;2023-09-19T03:03:38;18.30;68.40
17208;DHT22;8720;48.488;9.202;2023-09-19T03:06:06;18.30;68.20
17208;DHT22;8720;48.488;9.202;2023-09-19T03:08:35;18.20;68.20
17208;DHT22;8720;48.488;9.202;2023-09-19T03:11:05;18.20;68.30
17208;DHT22;8720;48.488;9.202;2023-09-19T03:13:38;18.20;68.40
17208;DHT22;8720;48.488;9.202;2023-09-19T03:16:06;18.20;68.50
17208;DHT22;8720;48.488;9.202;2023-09-19T03:18:34;18.20;68.60
17208;DHT22;8720;48.488;9.202;2023-09-19T03:21:04;18.20;69.10
17208;DHT22;8720;48.488;9.202;2023-09-19T03:23:31;18.20;69.40
17208;DHT22;8720;48.488;9.202;2023-09-19T03:25:59;18.20;69.20
17208;DHT22;8720;48.488;9.202;2023-09-19T03:28:27;18.20;69.00
17208;DHT22;8720;48.488;9.202;2023-09-19T03:31:01;18.30;69.30
17208;DHT22;8720;48.488;9.202;2023-09-19T03:33:31;18.30;69.80
17208;DHT22;8720;48.488;9.202;2023-09-19T03:36:01;18.30;69.70
17208;DHT22;8720;48.488;9.202;2023-09-19T03:38:32;18.30;69.60
17208;DHT22;8720;48.488;9.202;2023-09-19T03:41:01;18.30;69.60
17208;DHT22;8720;48.488;9.202;2023-09-19T03:43:28;18.30;69.30
17208;DHT22;8720;48.488;9.202;2023-09-19T03:45:56;18.40;69.40
17208;DHT22;8720;48.488;9.202;2023-09-19T03:48:23;18.40;69.60
17208;DHT22;8720;48.488;9.202;2023-09-19T03:50:51;18.40;69.70
17208;DHT22;8720;48.488;9.202;2023-09-19T03:53:22;18.40;69.90
17208;DHT22;8720;48.488;9.202;2023-09-19T03:55:51;18.40;70.00
17208;DHT22;8720;48.488;9.202;2023-09-19T03:58:19;18.50;70.00
17208;DHT22;8720;48.488;9.202;2023-09-19T04:00:46;18.50;69.90
17208;DHT22;8720;48.488;9.202;2023-09-19T04:03:15;18.50;70.10
17208;DHT22;8720;48.488;9.202;2023-09-19T04:05:46;18.50;70.20
17208;DHT22;8720;48.488;9.202;2023-09-19T04:08:14;18.50;70.20
17208;DHT22;8720;48.488;9.202;2023-09-19T04:10:42;18.50;70.40
17208;DHT22;8720;48.488;9.202;2023-09-19T04:13:12;18.50;70.60
17208;DHT22;8720;48.488;9.202;2023-09-19T04:15:41;18.50;70.40
17208;DHT22;8720;48.488;9.202;2023-09-19T04:18:08;18.50;70.20
17208;DHT22;8720;48.488;9.202;2023-09-19T04:20:36;18.50;70.20
17208;DHT22;8720;48.488;9.202;2023-09-19T04:23:03;18.50;70.20
17208;DHT22;8720;48.488;9.202;2023-09-19T04:25:31;18.50;70.20
17208;DHT22;8720;48.488;9.202;2023-09-19T04:27:59;18.50;70.00
17208;DHT22;8720;48.488;9.202;2023-09-19T04:30:28;18.50;70.00
17208;DHT22;8720;48.488;9.202;2023-09-19T04:32:55;18.40;70.20
17208;DHT22;8720;48.488;9.202;2023-09-19T04:35:23;18.40;70.10
17208;DHT22;8720;48.488;9.202;2023-09-19T04:37:51;18.40;69.90
17208;DHT22;8720;48.488;9.202;2023-09-19T04:40:18;18.40;70.00
17208;DHT22;8720;48.488;9.202;2023-09-19T04:42:53;18.30;69.80
17208;DHT22;8720;48.488;9.202;2023-09-19T04:45:23;18.30;70.00
17208;DHT22;8720;48.488;9.202;2023-09-19T04:47:55;18.30;69.60
17208;DHT22;8720;48.488;9.202;2023-09-19T04:50:22;18.30;69.70
17208;DHT22;8720;48.488;9.202;2023-09-19T04:52:52;18.30;69.50
17208;DHT22;8720;48.488;9.202;2023-09-19T04:55:20;18.20;69.50
17208;DHT22;8720;48.488;9.202;2023-09-19T04:57:48;18.10;69.60
17208;DHT22;8720;48.488;9.202;2023-09-19T05:00:18;18.10;69.60
17208;DHT22;8720;48.488;9.202;2023-09-19T05:23:16;18.00;70.70
17208;DHT22;8720;48.488;9.202;2023-09-19T05:25:47;18.00;70.50
17208;DHT22;8720;48.488;9.202;2023-09-19T05:28:15;18.00;70.50
17208;DHT22;8720;48.488;9.202;2023-09-19T05:30:42;18.10;70.60
17208;DHT22;8720;48.488;9.202;2023-09-19T05:33:10;18.10;71.30
17208;DHT22;8720;48.488;9.202;2023-09-19T05:35:38;18.10;70.50
17208;DHT22;8720;48.488;9.202;2023-09-19T05:38:07;18.20;70.60
17208;DHT22;8720;48.488;9.202;2023-09-19T05:40:39;18.30;71.00
17208;DHT22;8720;48.488;9.202;2023-09-19T05:43:08;18.30;70.80
17208;DHT22;8720;48.488;9.202;2023-09-19T05:45:36;18.40;70.80
17208;DHT22;8720;48.488;9.202;2023-09-19T05:48:08;18.50;70.60
17208;DHT22;8720;48.488;9.202;2023-09-19T05:50:39;18.60;70.40
17208;DHT22;8720;48.488;9.202;2023-09-19T05:53:06;18.70;70.50
17208;DHT22;8720;48.488;9.202;2023-09-19T05:55:34;18.70;70.10
17208;DHT22;8720;48.488;9.202;2023-09-19T05:58:03;18.80;70.10
17208;DHT22;8720;48.488;9.202;2023-09-19T06:00:30;18.90;70.00
17208;DHT22;8720;48.488;9.202;2023-09-19T06:02:59;18.90;69.90
17208;DHT22;8720;48.488;9.202;2023-09-19T06:05:27;19.00;69.90
17208;DHT22;8720;48.488;9.202;2023-09-19T06:07:56;19.00;69.60
17208;DHT22;8720;48.488;9.202;2023-09-19T06:10:25;19.10;69.80
17208;DHT22;8720;48.488;9.202;2023-09-19T06:12:54;19.10;70.00
17208;DHT22;8720;48.488;9.202;2023-09-19T06:15:25;19.10;70.10
17208;DHT22;8720;48.488;9.202;2023-09-19T06:17:53;19.20;69.30
17208;DHT22;8720;48.488;9.202;2023-09-19T06:20:22;19.20;69.00
17208;DHT22;8720;48.488;9.202;2023-09-19T06:22:51;19.20;69.10
17208;DHT22;8720;48.488;9.202;2023-09-19T06:25:19;19.20;69.10
17208;DHT22;8720;48.488;9.202;2023-09-19T06:27:48;19.20;69.20
17208;DHT22;8720;48.488;9.202;2023-09-19T06:30:18;19.20;69.30
17208;DHT22;8720;48.488;9.202;2023-09-19T06:32:46;19.10;69.40
17208;DHT22;8720;48.488;9.202;2023-09-19T06:35:15;19.10;69.50
17208;DHT22;8720;48.488;9.202;2023-09-19T06:37:43;19.10;69.60
17208;DHT22;8720;48.488;9.202;2023-09-19T06:40:11;19.10;69.50
17208;DHT22;8720;48.488;9.202;2023-09-19T06:42:40;19.10;70.00
17208;DHT22;8720;48.488;9.202;2023-09-19T06:45:09;19.10;69.70
17208;DHT22;8720;48.488;9.202;2023-09-19T06:47:39;19.10;70.00
17208;DHT22;8720;48.488;9.202;2023-09-19T06:50:08;19.20;70.30
17208;DHT22;8720;48.488;9.202;2023-09-19T06:52:39;19.20;70.20
17208;DHT22;8720;48.488;9.202;2023-09-19T06:55:07;19.20;70.10
17208;DHT22;8720;48.488;9.202;2023-09-19T06:57:35;19.20;69.90
17208;DHT22;8720;48.488;9.202;2023-09-19T07:00:03;19.30;69.80
17208;DHT22;8720;48.488;9.202;2023-09-19T07:02:35;19.30;69.70
17208;DHT22;8720;48.488;9.202;2023-09-19T07:05:02;19.30;69.80
17208;DHT22;8720;48.488;9.202;2023-09-19T07:07:32;19.40;69.60
17208;DHT22;8720;48.488;9.202;2023-09-19T07:10:00;19.40;69.40
17208;DHT22;8720;48.488;9.202;2023-09-19T07:12:27;19.40;69.40
17208;DHT22;8720;48.488;9.202;2023-09-19T07:14:55;19.50;69.50
17208;DHT22;8720;48.488;9.202;2023-09-19T07:17:22;19.50;70.00
17208;DHT22;8720;48.488;9.202;2023-09-19T07:19:50;19.60;70.40
17208;DHT22;8720;48.488;9.202;2023-09-19T07:22:17;19.70;70.70
17208;DHT22;8720;48.488;9.202;2023-09-19T07:24:45;19.90;71.30
17208;DHT22;8720;48.488;9.202;2023-09-19T07:27:14;20.20;70.70
17208;DHT22;8720;48.488;9.202;2023-09-19T07:29:42;20.30;70.30
17208;DHT22;8720;48.488;9.202;2023-09-19T07:32:09;20.50;70.40
17208;DHT22;8720;48.488;9.202;2023-09-19T07:34:37;20.80;70.40
17208;DHT22;8720;48.488;9.202;2023-09-19T07:37:06;21.00;70.30
17208;DHT22;8720;48.488;9.202;2023-09-19T07:39:33;21.30;70.20
17208;DHT22;8720;48.488;9.202;2023-09-19T07:42:02;21.50;69.60
17208;DHT22;8720;48.488;9.202;2023-09-19T07:44:29;21.70;67.80
17208;DHT22;8720;48.488;9.202;2023-09-19T07:46:57;21.90;67.10
17208;DHT22;8720;48.488;9.202;2023-09-19T07:49:24;22.10;66.10
17208;DHT22;8720;48.488;9.202;2023-09-19T07:51:51;22.20;64.70
17208;DHT22;8720;48.488;9.202;2023-09-19T07:54:20;22.20;64.40
17208;DHT22;8720;48.488;9.202;2023-09-19T07:56:47;22.30;63.90
17208;DHT22;8720;48.488;9.202;2023-09-19T07:59:16;22.30;64.00
17208;DHT22;8720;48.488;9.202;2023-09-19T08:01:43;22.40;63.40
17208;DHT22;8720;48.488;9.202;2023-09-19T08:04:10;22.40;63.20
17208;DHT22;8720;48.488;9.202;2023-09-19T08:06:38;22.40;62.20
17208;DHT22;8720;48.488;9.202;2023-09-19T08:09:05;22.40;62.10
17208;DHT22;8720;48.488;9.202;2023-09-19T08:11:36;22.40;62.00
17208;DHT22;8720;48.488;9.202;2023-09-19T08:14:04;22.40;61.80
17208;DHT22;8720;48.488;9.202;2023-09-19T08:16:35;22.40;61.10
17208;DHT22;8720;48.488;9.202;2023-09-19T08:19:03;22.40;60.50
17208;DHT22;8720;48.488;9.202;2023-09-19T08:21:31;22.30;60.50
17208;DHT22;8720;48.488;9.202;2023-09-19T08:23:58;22.30;60.30
17208;DHT22;8720;48.488;9.202;2023-09-19T08:26:28;22.30;60.10
17208;DHT22;8720;48.488;9.202;2023-09-19T08:28:56;22.20;59.90
17208;DHT22;8720;48.488;9.202;2023-09-19T08:31:23;22.20;59.90
17208;DHT22;8720;48.488;9.202;2023-09-19T08:33:52;22.20;59.90
17208;DHT22;8720;48.488;9.202;2023-09-19T08:36:21;22.20;59.10
17208;DHT22;8720;48.488;9.202;2023-09-19T08:38:48;22.10;59.30
17208;DHT22;8720;48.488;9.202;2023-09-19T08:41:17;22.10;59.10
17208;DHT22;8720;48.488;9.202;2023-09-19T08:43:45;22.10;58.60
17208;DHT22;8720;48.488;9.202;2023-09-19T08:46:15;22.10;58.70
17208;DHT22;8720;48.488;9.202;2023-09-19T08:48:47;22.10;58.00
17208;DHT22;8720;48.488;9.202;2023-09-19T08:51:27;22.10;57.90
17208;DHT22;8720;48.488;9.202;2023-09-19T08:54:05;22.10;57.80
17208;DHT22;8720;48.488;9.202;2023-09-19T08:56:36;22.00;57.40
17208;DHT22;8720;48.488;9.202;2023-09-19T08:59:06;22.00;57.90
17208;DHT22;8720;48.488;9.202;2023-09-19T09:01:35;22.10;57.80
17208;DHT22;8720;48.488;9.202;2023-09-19T09:04:08;22.10;58.10
17208;DHT22;8720;48.488;9.202;2023-09-19T09:06:39;22.10;57.60
17208;DHT22;8720;48.488;9.202;2023-09-19T09:09:09;22.10;58.50
17208;DHT22;8720;48.488;9.202;2023-09-19T09:11:37;22.20;58.50
17208;DHT22;8720;48.488;9.202;2023-09-19T09:14:06;22.30;58.00
17208;DHT22;8720;48.488;9.202;2023-09-19T09:16:34;22.30;57.10
17208;DHT22;8720;48.488;9.202;2023-09-19T09:19:01;22.30;57.00
17208;DHT22;8720;48.488;9.202;2023-09-19T09:21:30;22.30;56.40
17208;DHT22;8720;48.488;9.202;2023-09-19T09:24:26;22.40;56.30
17208;DHT22;8720;48.488;9.202;2023-09-19T09:26:53;22.40;55.80
17208;DHT22;8720;48.488;9.202;2023-09-19T09:29:41;22.40;56.80
17208;DHT22;8720;48.488;9.202;2023-09-19T09:32:20;22.50;56.00
17208;DHT22;8720;48.488;9.202;2023-09-19T09:34:52;22.50;55.70
17208;DHT22;8720;48.488;9.202;2023-09-19T09:37:22;22.50;56.20
17208;DHT22;8720;48.488;9.202;2023-09-19T09:39:51;22.60;56.30
17208;DHT22;8720;48.488;9.202;2023-09-19T09:42:32;22.60;56.20
17208;DHT22;8720;48.488;9.202;2023-09-19T09:45:22;22.70;56.00
17208;DHT22;8720;48.488;9.202;2023-09-19T09:48:03;22.80;55.00
17208;DHT22;8720;48.488;9.202;2023-09-19T09:50:47;22.90;56.00
17208;DHT22;8720;48.488;9.202;2023-09-19T09:53:24;23.00;54.90
17208;DHT22;8720;48.488;9.202;2023-09-19T09:56:01;23.10;55.20
17208;DHT22;8720;48.488;9.202;2023-09-19T09:58:32;23.10;54.20
17208;DHT22;8720;48.488;9.202;2023-09-19T10:01:01;23.20;54.70
17208;DHT22;8720;48.488;9.202;2023-09-19T10:03:35;23.30;53.70
17208;DHT22;8720;48.488;9.202;2023-09-19T10:06:07;23.30;53.30
17208;DHT22;8720;48.488;9.202;2023-09-19T10:09:05;23.40;53.10
17208;DHT22;8720;48.488;9.202;2023-09-19T10:11:42;23.40;51.50
17208;DHT22;8720;48.488;9.202;2023-09-19T10:14:11;23.40;51.90
17208;DHT22;8720;48.488;9.202;2023-09-19T10:16:42;23.40;52.30
17208;DHT22;8720;48.488;9.202;2023-09-19T10:19:16;23.40;52.30
17208;DHT22;8720;48.488;9.202;2023-09-19T10:21:50;23.40;51.90
17208;DHT22;8720;48.488;9.202;2023-09-19T10:24:24;23.40;52.00
17208;DHT22;8720;48.488;9.202;2023-09-19T10:26:55;23.50;51.70
17208;DHT22;8720;48.488;9.202;2023-09-19T10:29:24;23.50;51.60
17208;DHT22;8720;48.488;9.202;2023-09-19T10:31:58;23.50;51.50
17208;DHT22;8720;48.488;9.202;2023-09-19T10:34:29;23.50;51.10
17208;DHT22;8720;48.488;9.202;2023-09-19T10:36:59;23.50;50.80
17208;DHT22;8720;48.488;9.202;2023-09-19T10:39:33;23.50;50.30
17208;DHT22;8720;48.488;9.202;2023-09-19T10:42:02;23.50;50.40
17208;DHT22;8720;48.488;9.202;2023-09-19T10:44:32;23.50;50.50
17208;DHT22;8720;48.488;9.202;2023-09-19T10:47:00;23.50;50.10
17208;DHT22;8720;48.488;9.202;2023-09-19T10:49:28;23.50;50.00
17208;DHT22;8720;48.488;9.202;2023-09-19T10:51:59;23.50;50.00
17208;DHT22;8720;48.488;9.202;2023-09-19T10:54:31;23.50;50.10
17208;DHT22;8720;48.488;9.202;2023-09-19T10:57:03;23.50;49.20
17208;DHT22;8720;48.488;9.202;2023-09-19T10:59:31;23.40;49.30
17208;DHT22;8720;48.488;9.202;2023-09-19T11:02:15;23.40;49.50
17208;DHT22;8720;48.488;9.202;2023-09-19T11:04:44;23.30;48.40
17208;DHT22;8720;48.488;9.202;2023-09-19T11:07:14;23.30;49.40
17208;DHT22;8720;48.488;9.202;2023-09-19T11:09:51;23.20;49.60
17208;DHT22;8720;48.488;9.202;2023-09-19T11:12:47;23.20;49.30
17208;DHT22;8720;48.488;9.202;2023-09-19T11:18:51;23.20;48.60
17208;DHT22;8720;48.488;9.202;2023-09-19T11:21:53;23.30;48.80
17208;DHT22;8720;48.488;9.202;2023-09-19T11:24:31;23.30;48.70
17208;DHT22;8720;48.488;9.202;2023-09-19T11:27:26;23.40;48.80
17208;DHT22;8720;48.488;9.202;2023-09-19T11:30:25;23.40;47.80
17208;DHT22;8720;48.488;9.202;2023-09-19T11:33:23;23.50;48.00
17208;DHT22;8720;48.488;9.202;2023-09-19T11:36:01;23.60;47.90
17208;DHT22;8720;48.488;9.202;2023-09-19T11:38:57;23.70;48.00
17208;DHT22;8720;48.488;9.202;2023-09-19T11:41:40;23.70;47.30
17208;DHT22;8720;48.488;9.202;2023-09-19T11:44:33;23.80;47.00
17208;DHT22;8720;48.488;9.202;2023-09-19T11:47:07;23.80;46.90
17208;DHT22;8720;48.488;9.202;2023-09-19T11:49:40;23.90;47.90
17208;DHT22;8720;48.488;9.202;2023-09-19T11:52:08;23.90;47.30
17208;DHT22;8720;48.488;9.202;2023-09-19T11:54:37;24.00;47.90
17208;DHT22;8720;48.488;9.202;2023-09-19T11:57:08;24.00;47.60
17208;DHT22;8720;48.488;9.202;2023-09-19T11:59:39;24.10;47.40
17208;DHT22;8720;48.488;9.202;2023-09-19T12:02:07;24.10;47.10
17208;DHT22;8720;48.488;9.202;2023-09-19T12:04:37;24.20;47.20
17208;DHT22;8720;48.488;9.202;2023-09-19T12:07:08;24.30;47.00
17208;DHT22;8720;48.488;9.202;2023-09-19T12:09:42;24.30;46.80
17208;DHT22;8720;48.488;9.202;2023-09-19T12:12:19;24.40;46.50
17208;DHT22;8720;48.488;9.202;2023-09-19T12:14:49;24.40;45.80
17208;DHT22;8720;48.488;9.202;2023-09-19T12:17:17;24.50;46.60
17208;DHT22;8720;48.488;9.202;2023-09-19T12:19:50;24.50;46.40
17208;DHT22;8720;48.488;9.202;2023-09-19T12:22:18;24.50;46.20
17208;DHT22;8720;48.488;9.202;2023-09-19T12:24:46;24.60;46.30
17208;DHT22;8720;48.488;9.202;2023-09-19T12:27:14;24.60;46.00
17208;DHT22;8720;48.488;9.202;2023-09-19T12:29:43;24.60;46.00
17208;DHT22;8720;48.488;9.202;2023-09-19T12:32:12;24.60;46.00
17208;DHT22;8720;48.488;9.202;2023-09-19T12:34:44;24.70;45.90
17208;DHT22;8720;48.488;9.202;2023-09-19T12:37:18;24.70;45.80
17208;DHT22;8720;48.488;9.202;2023-09-19T12:39:50;24.70;46.20
17208;DHT22;8720;48.488;9.202;2023-09-19T12:42:22;24.80;45.90
17208;DHT22;8720;48.488;9.202;2023-09-19T12:44:51;24.70;45.60
17208;DHT22;8720;48.488;9.202;2023-09-19T12:47:23;24.80;45.40
17208;DHT22;8720;48.488;9.202;2023-09-19T12:50:10;24.80;45.40
17208;DHT22;8720;48.488;9.202;2023-09-19T12:52:45;24.80;44.70
17208;DHT22;8720;48.488;9.202;2023-09-19T12:55:24;24.80;45.40
17208;DHT22;8720;48.488;9.202;2023-09-19T12:58:02;24.70;44.60
17208;DHT22;8720;48.488;9.202;2023-09-19T13:00:39;24.80;44.80
17208;DHT22;8720;48.488;9.202;2023-09-19T13:03:16;24.80;45.20
17208;DHT22;8720;48.488;9.202;2023-09-19T13:05:51;24.80;44.40
17208;DHT22;8720;48.488;9.202;2023-09-19T13:08:21;24.70;44.20
17208;DHT22;8720;48.488;9.202;2023-09-19T13:11:05;24.80;44.70
17208;DHT22;8720;48.488;9.202;2023-09-19T13:13:41;24.80;43.00
17208;DHT22;8720;48.488;9.202;2023-09-19T13:16:14;24.90;43.40
17208;DHT22;8720;48.488;9.202;2023-09-19T13:18:48;24.90;43.70
17208;DHT22;8720;48.488;9.202;2023-09-19T13:21:27;24.90;43.80
17208;DHT22;8720;48.488;9.202;2023-09-19T13:24:19;24.90;42.80
17208;DHT22;8720;48.488;9.202;2023-09-19T13:26:48;24.90;42.50
17208;DHT22;8720;48.488;9.202;2023-09-19T13:29:16;25.00;43.30
17208;DHT22;8720;48.488;9.202;2023-09-19T13:31:46;25.00;42.90
17208;DHT22;8720;48.488;9.202;2023-09-19T13:34:15;25.00;42.40
17208;DHT22;8720;48.488;9.202;2023-09-19T13:36:43;25.00;42.50
17208;DHT22;8720;48.488;9.202;2023-09-19T13:39:13;25.00;42.60
17208;DHT22;8720;48.488;9.202;2023-09-19T13:41:41;24.90;42.50
17208;DHT22;8720;48.488;9.202;2023-09-19T13:44:08;24.90;42.20
17208;DHT22;8720;48.488;9.202;2023-09-19T13:46:37;24.90;42.50
17208;DHT22;8720;48.488;9.202;2023-09-19T13:49:04;24.90;42.70
17208;DHT22;8720;48.488;9.202;2023-09-19T13:51:33;24.90;42.40
17208;DHT22;8720;48.488;9.202;2023-09-19T13:54:01;24.90;42.10
17208;DHT22;8720;48.488;9.202;2023-09-19T13:56:28;24.90;42.50
17208;DHT22;8720;48.488;9.202;2023-09-19T13:58:56;24.90;42.70
17208;DHT22;8720;48.488;9.202;2023-09-19T14:01:24;25.00;42.70
17208;DHT22;8720;48.488;9.202;2023-09-19T14:03:52;25.00;42.80
17208;DHT22;8720;48.488;9.202;2023-09-19T14:06:22;25.00;42.70
17208;DHT22;8720;48.488;9.202;2023-09-19T14:08:51;25.00;43.50
17208;DHT22;8720;48.488;9.202;2023-09-19T14:11:18;25.00;42.70
17208;DHT22;8720;48.488;9.202;2023-09-19T14:13:45;25.00;42.90
17208;DHT22;8720;48.488;9.202;2023-09-19T14:16:15;25.00;43.10
17208;DHT22;8720;48.488;9.202;2023-09-19T14:18:45;25.00;43.10
17208;DHT22;8720;48.488;9.202;2023-09-19T14:21:12;25.00;42.90
17208;DHT22;8720;48.488;9.202;2023-09-19T14:23:40;25.00;43.20
17208;DHT22;8720;48.488;9.202;2023-09-19T14:26:10;25.00;43.00
17208;DHT22;8720;48.488;9.202;2023-09-19T14:28:37;25.00;42.90
17208;DHT22;8720;48.488;9.202;2023-09-19T14:31:07;25.00;43.10
17208;DHT22;8720;48.488;9.202;2023-09-19T14:33:36;25.00;43.20
17208;DHT22;8720;48.488;9.202;2023-09-19T14:36:04;25.00;43.10
17208;DHT22;8720;48.488;9.202;2023-09-19T14:38:33;25.00;42.80
17208;DHT22;8720;48.488;9.202;2023-09-19T14:41:01;25.00;42.70
17208;DHT22;8720;48.488;9.202;2023-09-19T14:43:31;25.00;42.50
17208;DHT22;8720;48.488;9.202;2023-09-19T14:46:03;24.90;42.00
17208;DHT22;8720;48.488;9.202;2023-09-19T14:48:30;25.00;42.00
17208;DHT22;8720;48.488;9.202;2023-09-19T14:51:02;24.90;42.20
17208;DHT22;8720;48.488;9.202;2023-09-19T14:53:30;24.90;42.00
17208;DHT22;8720;48.488;9.202;2023-09-19T14:56:00;24.90;42.10
17208;DHT22;8720;48.488;9.202;2023-09-19T14:58:30;24.90;41.80
17208;DHT22;8720;48.488;9.202;2023-09-19T15:01:03;24.90;41.80
17208;DHT22;8720;48.488;9.202;2023-09-19T15:03:32;24.90;41.50
17208;DHT22;8720;48.488;9.202;2023-09-19T15:06:01;24.80;41.80
17208;DHT22;8720;48.488;9.202;2023-09-19T15:08:30;24.80;41.60
17208;DHT22;8720;48.488;9.202;2023-09-19T15:10:57;24.80;41.50
17208;DHT22;8720;48.488;9.202;2023-09-19T15:13:30;24.80;41.50
17208;DHT22;8720;48.488;9.202;2023-09-19T15:16:01;24.80;41.40
17208;DHT22;8720;48.488;9.202;2023-09-19T15:18:30;24.80;41.20
17208;DHT22;8720;48.488;9.202;2023-09-19T15:21:00;24.90;41.90
17208;DHT22;8720;48.488;9.202;2023-09-19T15:23:29;24.90;41.60
17208;DHT22;8720;48.488;9.202;2023-09-19T15:25:57;24.90;41.80
17208;DHT22;8720;48.488;9.202;2023-09-19T15:28:24;24.90;41.60
17208;DHT22;8720;48.488;9.202;2023-09-19T15:30:57;24.90;41.40
17208;DHT22;8720;48.488;9.202;2023-09-19T15:33:25;24.90;41.20
17208;DHT22;8720;48.488;9.202;2023-09-19T15:36:01;24.90;41.40
17208;DHT22;8720;48.488;9.202;2023-09-19T15:38:29;24.90;41.50
17208;DHT22;8720;48.488;9.202;2023-09-19T15:40:57;24.90;41.40
17208;DHT22;8720;48.488;9.202;2023-09-19T15:43:25;24.80;41.10
17208;DHT22;8720;48.488;9.202;2023-09-19T15:45:53;24.80;41.20
17208;DHT22;8720;48.488;9.202;2023-09-19T15:48:24;24.80;40.90
17208;DHT22;8720;48.488;9.202;2023-09-19T15:50:51;24.80;40.80
17208;DHT22;8720;48.488;9.202;2023-09-19T15:53:18;24.80;40.80
17208;DHT22;8720;48.488;9.202;2023-09-19T15:55:45;24.70;40.90
17208;DHT22;8720;48.488;9.202;2023-09-19T15:58:13;24.70;41.00
17208;DHT22;8720;48.488;9.202;2023-09-19T16:00:40;24.70;41.00
17208;DHT22;8720;48.488;9.202;2023-09-19T16:03:09;24.70;41.10
17208;DHT22;8720;48.488;9.202;2023-09-19T16:05:36;24.60;40.70
17208;DHT22;8720;48.488;9.202;2023-09-19T16:08:06;24.60;40.90
17208;DHT22;8720;48.488;9.202;2023-09-19T16:10:37;24.60;40.90
17208;DHT22;8720;48.488;9.202;2023-09-19T16:13:04;24.60;40.60
17208;DHT22;8720;48.488;9.202;2023-09-19T16:15:31;24.60;40.80
17208;DHT22;8720;48.488;9.202;2023-09-19T16:17:59;24.50;40.70
17208;DHT22;8720;48.488;9.202;2023-09-19T16:20:30;24.50;40.70
17208;DHT22;8720;48.488;9.202;2023-09-19T16:22:59;24.40;40.60
17208;DHT22;8720;48.488;9.202;2023-09-19T16:25:27;24.40;41.10
17208;DHT22;8720;48.488;9.202;2023-09-19T16:27:54;24.30;41.60
17208;DHT22;8720;48.488;9.202;2023-09-19T16:30:21;24.30;40.90
17208;DHT22;8720;48.488;9.202;2023-09-19T16:32:49;24.30;40.80